Thoreau, New Mexico
Current Conditions -  °F | °C
As of 11:35 AM on Monday 22 Dec 2014 (Local Time) from KGNT Reporting Station
Clear Clear  
Wind Chill: 53°   Ceiling: Unl
Heat Index: 53°   Visibility: 10mi
Dew Point: 31°   Wind: 15mph
Humidity: 43%   Direction: 280°W
Pressure: 29.93"   Gusts: 25mph
Location:  35.4°N, 108.22°W
Report Text: KGNT 221835Z AUTO 28013G22KT 10SM CLR 12/M01 A2993 RMK AO2 T01151006
Loading
Personal Weather Stations






























Interactive Weather Map New forecast layout! Learn more

10-Day Weather Forecast

Advertisements
Track Severe Weather on mobile